sensor_id;sensor_type;location;lat;lon;timestamp;pressure;altitude;pressure_sealevel;temperature;humidity
57232;BME280;43488;46.934;8.276;2023-04-25T00:00:02;95989.13;;;9.97;65.03
57232;BME280;43488;46.934;8.276;2023-04-25T00:02:30;95997.53;;;10.06;63.63
57232;BME280;43488;46.934;8.276;2023-04-25T00:05:02;95999.34;;;10.05;65.60
57232;BME280;43488;46.934;8.276;2023-04-25T00:07:29;96002.38;;;10.09;65.02
57232;BME280;43488;46.934;8.276;2023-04-25T00:09:56;95998.50;;;10.11;65.17
57232;BME280;43488;46.934;8.276;2023-04-25T00:12:23;96001.94;;;10.12;63.20
57232;BME280;43488;46.934;8.276;2023-04-25T00:14:51;95995.66;;;10.13;67.48
57232;BME280;43488;46.934;8.276;2023-04-25T00:17:20;95997.06;;;10.15;63.39
57232;BME280;43488;46.934;8.276;2023-04-25T00:19:47;95997.66;;;10.17;66.34
57232;BME280;43488;46.934;8.276;2023-04-25T00:22:14;95990.56;;;10.18;67.01
57232;BME280;43488;46.934;8.276;2023-04-25T00:24:41;96004.94;;;10.15;70.04
57232;BME280;43488;46.934;8.276;2023-04-25T00:27:09;96000.31;;;10.11;71.70
57232;BME280;43488;46.934;8.276;2023-04-25T00:29:36;95993.28;;;10.05;70.60
57232;BME280;43488;46.934;8.276;2023-04-25T00:32:03;95995.56;;;10.01;70.54
57232;BME280;43488;46.934;8.276;2023-04-25T00:34:31;96000.16;;;10.06;71.34
57232;BME280;43488;46.934;8.276;2023-04-25T00:37:00;96001.41;;;10.03;70.05
57232;BME280;43488;46.934;8.276;2023-04-25T00:39:29;95991.06;;;10.08;68.56
57232;BME280;43488;46.934;8.276;2023-04-25T00:41:57;95985.13;;;10.13;66.08
57232;BME280;43488;46.934;8.276;2023-04-25T00:44:26;95988.16;;;10.16;63.75
57232;BME280;43488;46.934;8.276;2023-04-25T00:46:55;95980.44;;;10.15;66.68
57232;BME280;43488;46.934;8.276;2023-04-25T00:49:23;95978.13;;;10.07;68.53
57232;BME280;43488;46.934;8.276;2023-04-25T00:51:51;95978.47;;;10.10;68.97
57232;BME280;43488;46.934;8.276;2023-04-25T00:54:19;95979.66;;;10.14;69.68
57232;BME280;43488;46.934;8.276;2023-04-25T00:56:47;95980.09;;;10.11;69.80
57232;BME280;43488;46.934;8.276;2023-04-25T00:59:15;95974.25;;;10.09;68.85
57232;BME280;43488;46.934;8.276;2023-04-25T01:01:43;95975.69;;;10.05;70.66
57232;BME280;43488;46.934;8.276;2023-04-25T01:04:15;95970.44;;;10.05;68.64
57232;BME280;43488;46.934;8.276;2023-04-25T01:06:43;95973.66;;;10.07;67.33
57232;BME280;43488;46.934;8.276;2023-04-25T01:09:10;95960.28;;;10.09;68.89
57232;BME280;43488;46.934;8.276;2023-04-25T01:11:38;95962.53;;;10.05;70.46
57232;BME280;43488;46.934;8.276;2023-04-25T01:14:07;95965.78;;;10.07;69.77
57232;BME280;43488;46.934;8.276;2023-04-25T01:16:34;95963.16;;;10.07;68.31
57232;BME280;43488;46.934;8.276;2023-04-25T01:19:03;95973.78;;;9.94;68.99
57232;BME280;43488;46.934;8.276;2023-04-25T01:21:32;95972.81;;;9.88;69.40
57232;BME280;43488;46.934;8.276;2023-04-25T01:23:59;95973.44;;;9.84;69.53
57232;BME280;43488;46.934;8.276;2023-04-25T01:26:27;95964.13;;;9.88;68.07
57232;BME280;43488;46.934;8.276;2023-04-25T01:28:55;95954.19;;;9.90;70.02
57232;BME280;43488;46.934;8.276;2023-04-25T01:31:22;95964.13;;;9.88;72.03
57232;BME280;43488;46.934;8.276;2023-04-25T01:33:50;95955.63;;;9.86;72.82
57232;BME280;43488;46.934;8.276;2023-04-25T01:36:18;95962.50;;;9.87;73.90
57232;BME280;43488;46.934;8.276;2023-04-25T01:38:45;95949.16;;;9.88;74.27
57232;BME280;43488;46.934;8.276;2023-04-25T01:41:14;95956.84;;;9.90;74.26
57232;BME280;43488;46.934;8.276;2023-04-25T01:43:42;95958.47;;;9.84;75.89
57232;BME280;43488;46.934;8.276;2023-04-25T01:46:09;95957.69;;;9.84;75.40
57232;BME280;43488;46.934;8.276;2023-04-25T01:48:38;95940.94;;;9.78;75.35
57232;BME280;43488;46.934;8.276;2023-04-25T01:51:05;95938.97;;;9.74;75.85
57232;BME280;43488;46.934;8.276;2023-04-25T01:53:32;95940.84;;;9.66;76.17
57232;BME280;43488;46.934;8.276;2023-04-25T01:56:01;95942.88;;;9.64;74.45
57232;BME280;43488;46.934;8.276;2023-04-25T01:58:28;95938.22;;;9.66;67.74
57232;BME280;43488;46.934;8.276;2023-04-25T02:00:56;95932.69;;;9.75;68.00
57232;BME280;43488;46.934;8.276;2023-04-25T02:03:23;95931.66;;;9.76;68.72
57232;BME280;43488;46.934;8.276;2023-04-25T02:05:50;95926.84;;;9.73;71.76
57232;BME280;43488;46.934;8.276;2023-04-25T02:08:18;95934.72;;;9.73;69.50
57232;BME280;43488;46.934;8.276;2023-04-25T02:10:45;95936.78;;;9.71;67.61
57232;BME280;43488;46.934;8.276;2023-04-25T02:13:13;95929.03;;;9.76;68.81
57232;BME280;43488;46.934;8.276;2023-04-25T02:15:40;95931.56;;;9.64;69.87
57232;BME280;43488;46.934;8.276;2023-04-25T02:18:08;95923.69;;;9.64;68.55
57232;BME280;43488;46.934;8.276;2023-04-25T02:20:37;95922.44;;;9.66;68.21
57232;BME280;43488;46.934;8.276;2023-04-25T02:23:05;95924.50;;;9.64;73.40
57232;BME280;43488;46.934;8.276;2023-04-25T02:25:33;95921.63;;;9.66;73.04
57232;BME280;43488;46.934;8.276;2023-04-25T02:28:00;95936.59;;;9.65;72.45
57232;BME280;43488;46.934;8.276;2023-04-25T02:30:27;95919.22;;;9.64;73.32
57232;BME280;43488;46.934;8.276;2023-04-25T02:32:54;95917.41;;;9.65;73.34
57232;BME280;43488;46.934;8.276;2023-04-25T02:35:22;95928.13;;;9.63;73.87
57232;BME280;43488;46.934;8.276;2023-04-25T02:37:49;95924.13;;;9.61;74.26
57232;BME280;43488;46.934;8.276;2023-04-25T02:40:17;95932.19;;;9.59;75.43
57232;BME280;43488;46.934;8.276;2023-04-25T02:42:44;95923.31;;;9.60;74.87
57232;BME280;43488;46.934;8.276;2023-04-25T02:45:13;95927.56;;;9.61;75.20
57232;BME280;43488;46.934;8.276;2023-04-25T02:47:41;95934.25;;;9.57;76.10
57232;BME280;43488;46.934;8.276;2023-04-25T02:50:08;95933.66;;;9.55;76.99
57232;BME280;43488;46.934;8.276;2023-04-25T02:52:36;95924.53;;;9.58;76.84
57232;BME280;43488;46.934;8.276;2023-04-25T02:55:04;95936.06;;;9.57;76.96
57232;BME280;43488;46.934;8.276;2023-04-25T02:57:31;95929.25;;;9.49;72.67
57232;BME280;43488;46.934;8.276;2023-04-25T02:59:59;95936.56;;;9.47;71.44
57232;BME280;43488;46.934;8.276;2023-04-25T03:02:26;95936.81;;;9.39;69.19
57232;BME280;43488;46.934;8.276;2023-04-25T03:04:53;95941.72;;;9.29;72.91
57232;BME280;43488;46.934;8.276;2023-04-25T03:07:21;95943.78;;;9.27;72.83
57232;BME280;43488;46.934;8.276;2023-04-25T03:09:49;95942.75;;;9.28;72.70
57232;BME280;43488;46.934;8.276;2023-04-25T03:12:18;95937.88;;;9.31;75.60
57232;BME280;43488;46.934;8.276;2023-04-25T03:14:46;95940.38;;;9.20;75.28
57232;BME280;43488;46.934;8.276;2023-04-25T03:17:13;95942.41;;;9.18;74.10
57232;BME280;43488;46.934;8.276;2023-04-25T03:19:42;95949.88;;;9.21;71.31
57232;BME280;43488;46.934;8.276;2023-04-25T03:22:11;95936.34;;;9.24;70.33
57232;BME280;43488;46.934;8.276;2023-04-25T03:24:38;95928.28;;;9.19;70.47
57232;BME280;43488;46.934;8.276;2023-04-25T03:27:08;95929.84;;;9.26;70.00
57232;BME280;43488;46.934;8.276;2023-04-25T03:29:36;95930.06;;;9.25;71.77
57232;BME280;43488;46.934;8.276;2023-04-25T03:32:04;95927.44;;;9.25;70.69
57232;BME280;43488;46.934;8.276;2023-04-25T03:34:31;95930.22;;;9.30;72.60
57232;BME280;43488;46.934;8.276;2023-04-25T03:36:59;95928.81;;;9.27;70.48
57232;BME280;43488;46.934;8.276;2023-04-25T03:39:27;95919.91;;;9.28;70.18
57232;BME280;43488;46.934;8.276;2023-04-25T03:41:54;95920.56;;;9.24;71.48
57232;BME280;43488;46.934;8.276;2023-04-25T03:44:22;95914.28;;;9.25;72.26
57232;BME280;43488;46.934;8.276;2023-04-25T03:46:50;95912.25;;;9.27;73.02
57232;BME280;43488;46.934;8.276;2023-04-25T03:49:17;95907.63;;;9.22;72.45
57232;BME280;43488;46.934;8.276;2023-04-25T03:51:47;95921.41;;;9.18;74.12
57232;BME280;43488;46.934;8.276;2023-04-25T03:54:15;95933.34;;;9.13;75.13
57232;BME280;43488;46.934;8.276;2023-04-25T03:56:43;95951.81;;;9.00;76.29
57232;BME280;43488;46.934;8.276;2023-04-25T03:59:10;95941.56;;;8.92;72.85
57232;BME280;43488;46.934;8.276;2023-04-25T04:01:39;95945.53;;;9.01;71.30
57232;BME280;43488;46.934;8.276;2023-04-25T04:04:06;95955.44;;;9.06;71.34
57232;BME280;43488;46.934;8.276;2023-04-25T04:06:33;95969.97;;;9.02;72.43
57232;BME280;43488;46.934;8.276;2023-04-25T04:09:02;95954.47;;;8.94;70.05
57232;BME280;43488;46.934;8.276;2023-04-25T04:11:30;95952.63;;;8.94;71.17
57232;BME280;43488;46.934;8.276;2023-04-25T04:13:59;95953.66;;;8.93;73.67
57232;BME280;43488;46.934;8.276;2023-04-25T04:16:27;95958.28;;;8.98;74.45
57232;BME280;43488;46.934;8.276;2023-04-25T04:18:54;95957.50;;;8.97;72.70
57232;BME280;43488;46.934;8.276;2023-04-25T04:21:22;95960.88;;;9.04;73.32
57232;BME280;43488;46.934;8.276;2023-04-25T04:23:50;95957.25;;;9.05;75.07
57232;BME280;43488;46.934;8.276;2023-04-25T04:26:17;95957.25;;;9.05;76.46
57232;BME280;43488;46.934;8.276;2023-04-25T04:28:45;95950.34;;;9.04;77.05
57232;BME280;43488;46.934;8.276;2023-04-25T04:31:12;95946.13;;;9.03;77.65
57232;BME280;43488;46.934;8.276;2023-04-25T04:33:42;95938.25;;;9.03;80.29
57232;BME280;43488;46.934;8.276;2023-04-25T04:36:09;95946.53;;;9.07;82.76
57232;BME280;43488;46.934;8.276;2023-04-25T04:38:37;95950.97;;;9.06;84.61
57232;BME280;43488;46.934;8.276;2023-04-25T04:41:07;95952.28;;;8.84;88.06
57232;BME280;43488;46.934;8.276;2023-04-25T04:43:35;95950.72;;;8.76;88.70
57232;BME280;43488;46.934;8.276;2023-04-25T04:46:02;95951.94;;;8.74;91.80
57232;BME280;43488;46.934;8.276;2023-04-25T04:48:34;95947.13;;;8.71;94.82
57232;BME280;43488;46.934;8.276;2023-04-25T04:51:01;95947.91;;;8.71;94.10
57232;BME280;43488;46.934;8.276;2023-04-25T04:53:28;95952.38;;;8.71;93.63
57232;BME280;43488;46.934;8.276;2023-04-25T04:55:56;95944.88;;;8.68;94.33
57232;BME280;43488;46.934;8.276;2023-04-25T04:58:23;95950.13;;;8.68;93.45
57232;BME280;43488;46.934;8.276;2023-04-25T05:00:50;95949.31;;;8.74;92.78
57232;BME280;43488;46.934;8.276;2023-04-25T05:03:17;95950.53;;;8.78;92.23
57232;BME280;43488;46.934;8.276;2023-04-25T05:05:45;95954.78;;;8.66;94.34
57232;BME280;43488;46.934;8.276;2023-04-25T05:08:13;95956.63;;;8.59;91.91
57232;BME280;43488;46.934;8.276;2023-04-25T05:10:40;95956.84;;;8.64;90.34
57232;BME280;43488;46.934;8.276;2023-04-25T05:13:08;95940.25;;;8.70;89.26
57232;BME280;43488;46.934;8.276;2023-04-25T05:15:38;95943.06;;;8.75;88.90
57232;BME280;43488;46.934;8.276;2023-04-25T05:18:06;95946.47;;;8.75;92.09
57232;BME280;43488;46.934;8.276;2023-04-25T05:20:33;95938.66;;;8.69;94.80
57232;BME280;43488;46.934;8.276;2023-04-25T05:23:01;95932.97;;;8.72;95.66
57232;BME280;43488;46.934;8.276;2023-04-25T05:25:29;95928.53;;;8.72;96.62
57232;BME280;43488;46.934;8.276;2023-04-25T05:27:58;95925.47;;;8.75;95.61
57232;BME280;43488;46.934;8.276;2023-04-25T05:30:25;95929.53;;;8.78;95.57
57232;BME280;43488;46.934;8.276;2023-04-25T05:32:52;95927.50;;;8.80;96.13
57232;BME280;43488;46.934;8.276;2023-04-25T05:35:20;95924.88;;;8.80;95.87
57232;BME280;43488;46.934;8.276;2023-04-25T05:37:47;95927.28;;;8.81;94.64
57232;BME280;43488;46.934;8.276;2023-04-25T05:40:15;95917.00;;;8.80;94.69
57232;BME280;43488;46.934;8.276;2023-04-25T05:42:42;95921.22;;;8.81;93.95
57232;BME280;43488;46.934;8.276;2023-04-25T05:45:09;95935.75;;;8.83;92.66
57232;BME280;43488;46.934;8.276;2023-04-25T05:47:38;95921.81;;;8.83;91.16
57232;BME280;43488;46.934;8.276;2023-04-25T05:50:06;95921.38;;;8.86;93.08
57232;BME280;43488;46.934;8.276;2023-04-25T05:52:34;95925.03;;;8.85;94.25
57232;BME280;43488;46.934;8.276;2023-04-25T05:55:01;95926.03;;;8.84;93.13
57232;BME280;43488;46.934;8.276;2023-04-25T05:57:29;95923.41;;;8.84;93.12
57232;BME280;43488;46.934;8.276;2023-04-25T05:59:56;95924.00;;;8.86;92.87
57232;BME280;43488;46.934;8.276;2023-04-25T06:02:24;95911.44;;;8.95;93.37
57232;BME280;43488;46.934;8.276;2023-04-25T06:04:51;95911.03;;;8.98;92.93
57232;BME280;43488;46.934;8.276;2023-04-25T06:07:19;95918.06;;;9.04;92.51
57232;BME280;43488;46.934;8.276;2023-04-25T06:09:48;95916.41;;;9.09;91.54
57232;BME280;43488;46.934;8.276;2023-04-25T06:12:16;95914.78;;;9.15;92.17
57232;BME280;43488;46.934;8.276;2023-04-25T06:14:49;95912.50;;;9.19;91.64
57232;BME280;43488;46.934;8.276;2023-04-25T06:17:16;95909.66;;;9.20;91.90
57232;BME280;43488;46.934;8.276;2023-04-25T06:19:43;95905.22;;;9.21;95.49
57232;BME280;43488;46.934;8.276;2023-04-25T06:22:10;95906.41;;;9.25;97.63
57232;BME280;43488;46.934;8.276;2023-04-25T06:24:38;95917.53;;;9.20;96.19
57232;BME280;43488;46.934;8.276;2023-04-25T06:27:06;95914.69;;;9.22;96.78
57232;BME280;43488;46.934;8.276;2023-04-25T06:29:34;95933.31;;;9.20;95.64
57232;BME280;43488;46.934;8.276;2023-04-25T06:32:01;95958.41;;;9.16;93.87
57232;BME280;43488;46.934;8.276;2023-04-25T06:34:29;95963.25;;;9.12;93.04
57232;BME280;43488;46.934;8.276;2023-04-25T06:36:57;95967.06;;;9.17;93.64
57232;BME280;43488;46.934;8.276;2023-04-25T06:39:24;95991.09;;;9.20;94.12
57232;BME280;43488;46.934;8.276;2023-04-25T06:41:52;96001.00;;;9.18;94.80
57232;BME280;43488;46.934;8.276;2023-04-25T06:44:21;95990.72;;;9.17;96.13
57232;BME280;43488;46.934;8.276;2023-04-25T06:46:50;95975.34;;;9.13;95.94
57232;BME280;43488;46.934;8.276;2023-04-25T06:49:17;95978.41;;;9.10;96.77
57232;BME280;43488;46.934;8.276;2023-04-25T06:51:44;95967.91;;;9.10;98.07
57232;BME280;43488;46.934;8.276;2023-04-25T06:54:12;95968.94;;;9.03;94.61
57232;BME280;43488;46.934;8.276;2023-04-25T06:56:39;95970.97;;;9.07;95.08
57232;BME280;43488;46.934;8.276;2023-04-25T06:59:06;95971.38;;;9.04;94.57
57232;BME280;43488;46.934;8.276;2023-04-25T07:01:34;95980.25;;;9.03;93.31
57232;BME280;43488;46.934;8.276;2023-04-25T07:04:02;95978.25;;;9.05;92.87
57232;BME280;43488;46.934;8.276;2023-04-25T07:06:29;95977.03;;;9.08;92.36
57232;BME280;43488;46.934;8.276;2023-04-25T07:08:56;95978.59;;;9.16;92.83
57232;BME280;43488;46.934;8.276;2023-04-25T07:11:24;95976.78;;;9.16;91.98
57232;BME280;43488;46.934;8.276;2023-04-25T07:13:51;95980.00;;;9.18;92.01
57232;BME280;43488;46.934;8.276;2023-04-25T07:16:18;95975.53;;;9.19;92.60
57232;BME280;43488;46.934;8.276;2023-04-25T07:18:46;95984.81;;;9.21;93.53
57232;BME280;43488;46.934;8.276;2023-04-25T07:21:13;95992.47;;;9.23;93.76
57232;BME280;43488;46.934;8.276;2023-04-25T07:23:40;95997.31;;;9.26;92.59
57232;BME280;43488;46.934;8.276;2023-04-25T07:26:07;96004.63;;;9.24;93.76
57232;BME280;43488;46.934;8.276;2023-04-25T07:28:35;96006.25;;;9.18;93.38
57232;BME280;43488;46.934;8.276;2023-04-25T07:31:02;95987.69;;;9.13;93.35
57232;BME280;43488;46.934;8.276;2023-04-25T07:33:30;95988.31;;;9.08;93.04
57232;BME280;43488;46.934;8.276;2023-04-25T07:35:58;95997.56;;;9.18;95.23
57232;BME280;43488;46.934;8.276;2023-04-25T07:38:25;95991.88;;;9.21;94.73
57232;BME280;43488;46.934;8.276;2023-04-25T07:40:52;95989.28;;;9.14;97.29
57232;BME280;43488;46.934;8.276;2023-04-25T07:43:20;96005.34;;;9.31;98.04
57232;BME280;43488;46.934;8.276;2023-04-25T07:45:48;96004.06;;;9.47;100.00
57232;BME280;43488;46.934;8.276;2023-04-25T07:48:19;96007.03;;;9.57;96.29
57232;BME280;43488;46.934;8.276;2023-04-25T07:50:46;96010.03;;;9.60;94.19
57232;BME280;43488;46.934;8.276;2023-04-25T07:53:14;96014.91;;;9.57;94.50
57232;BME280;43488;46.934;8.276;2023-04-25T07:55:41;96017.31;;;9.58;92.39
57232;BME280;43488;46.934;8.276;2023-04-25T07:58:09;96017.56;;;9.50;94.63
57232;BME280;43488;46.934;8.276;2023-04-25T08:00:36;96015.63;;;9.71;95.61
57232;BME280;43488;46.934;8.276;2023-04-25T08:03:04;96022.59;;;9.83;94.14
57232;BME280;43488;46.934;8.276;2023-04-25T08:05:34;96022.81;;;9.82;93.74
57232;BME280;43488;46.934;8.276;2023-04-25T08:08:02;96019.75;;;9.85;95.35
57232;BME280;43488;46.934;8.276;2023-04-25T08:10:29;96028.03;;;9.88;95.17
57232;BME280;43488;46.934;8.276;2023-04-25T08:12:57;96035.06;;;9.94;93.57
57232;BME280;43488;46.934;8.276;2023-04-25T08:15:24;96030.00;;;9.93;92.40
57232;BME280;43488;46.934;8.276;2023-04-25T08:17:52;96041.28;;;10.00;96.93
57232;BME280;43488;46.934;8.276;2023-04-25T08:20:19;96027.63;;;9.85;93.82
57232;BME280;43488;46.934;8.276;2023-04-25T08:22:48;96025.22;;;9.83;90.83
57232;BME280;43488;46.934;8.276;2023-04-25T08:25:15;96033.28;;;10.13;89.01
57232;BME280;43488;46.934;8.276;2023-04-25T08:27:43;96033.34;;;10.32;88.72
57232;BME280;43488;46.934;8.276;2023-04-25T08:30:11;96045.19;;;10.41;87.67
57232;BME280;43488;46.934;8.276;2023-04-25T08:32:40;96042.16;;;10.44;87.03
57232;BME280;43488;46.934;8.276;2023-04-25T08:35:08;96035.34;;;10.36;87.44
57232;BME280;43488;46.934;8.276;2023-04-25T08:37:35;96036.84;;;10.01;85.89
57232;BME280;43488;46.934;8.276;2023-04-25T08:40:04;96043.00;;;9.88;88.11
57232;BME280;43488;46.934;8.276;2023-04-25T08:42:37;96058.50;;;9.96;87.89
57232;BME280;43488;46.934;8.276;2023-04-25T08:45:06;96067.34;;;9.77;89.14
57232;BME280;43488;46.934;8.276;2023-04-25T08:47:34;96087.09;;;9.54;89.75
57232;BME280;43488;46.934;8.276;2023-04-25T08:50:05;96116.84;;;9.41;92.29
57232;BME280;43488;46.934;8.276;2023-04-25T08:52:39;96143.41;;;9.20;91.95
57232;BME280;43488;46.934;8.276;2023-04-25T08:55:12;96135.22;;;8.77;86.26
57232;BME280;43488;46.934;8.276;2023-04-25T08:57:42;96115.69;;;8.60;81.55
57232;BME280;43488;46.934;8.276;2023-04-25T09:00:12;96106.59;;;8.69;86.67
57232;BME280;43488;46.934;8.276;2023-04-25T09:02:40;96108.81;;;8.78;87.67
57232;BME280;43488;46.934;8.276;2023-04-25T09:05:10;96111.38;;;8.98;90.10
57232;BME280;43488;46.934;8.276;2023-04-25T09:07:40;96116.59;;;9.05;90.02
57232;BME280;43488;46.934;8.276;2023-04-25T09:10:08;96118.81;;;9.15;90.20
57232;BME280;43488;46.934;8.276;2023-04-25T09:12:36;96131.50;;;9.24;92.05
57232;BME280;43488;46.934;8.276;2023-04-25T09:15:14;96135.09;;;9.30;87.80
57232;BME280;43488;46.934;8.276;2023-04-25T09:17:42;96150.06;;;9.23;89.03
57232;BME280;43488;46.934;8.276;2023-04-25T09:20:15;96144.03;;;9.16;89.91
57232;BME280;43488;46.934;8.276;2023-04-25T09:22:46;96145.44;;;9.11;90.07
57232;BME280;43488;46.934;8.276;2023-04-25T09:25:13;96132.53;;;9.17;93.44
57232;BME280;43488;46.934;8.276;2023-04-25T09:27:53;96143.19;;;9.22;92.55
57232;BME280;43488;46.934;8.276;2023-04-25T09:30:30;96136.63;;;9.51;91.93
57232;BME280;43488;46.934;8.276;2023-04-25T09:33:08;96132.81;;;9.85;91.46
57232;BME280;43488;46.934;8.276;2023-04-25T09:35:39;96129.13;;;9.92;87.12
57232;BME280;43488;46.934;8.276;2023-04-25T09:38:12;96135.78;;;9.95;83.99
57232;BME280;43488;46.934;8.276;2023-04-25T09:40:45;96138.75;;;10.05;84.32
57232;BME280;43488;46.934;8.276;2023-04-25T09:43:23;96139.53;;;10.06;84.67
57232;BME280;43488;46.934;8.276;2023-04-25T09:45:53;96142.97;;;9.75;89.34
57232;BME280;43488;46.934;8.276;2023-04-25T09:48:22;96143.06;;;9.61;87.70
57232;BME280;43488;46.934;8.276;2023-04-25T09:51:10;96143.41;;;9.72;88.70
57232;BME280;43488;46.934;8.276;2023-04-25T09:53:40;96146.41;;;9.75;87.65
57232;BME280;43488;46.934;8.276;2023-04-25T09:56:11;96151.91;;;9.67;90.85
57232;BME280;43488;46.934;8.276;2023-04-25T09:58:40;96149.06;;;9.68;91.25
57232;BME280;43488;46.934;8.276;2023-04-25T10:01:10;96158.72;;;9.81;90.57
57232;BME280;43488;46.934;8.276;2023-04-25T10:03:39;96154.81;;;9.90;89.83
57232;BME280;43488;46.934;8.276;2023-04-25T10:06:19;96149.22;;;9.80;85.94
57232;BME280;43488;46.934;8.276;2023-04-25T10:08:51;96151.69;;;9.68;86.81
57232;BME280;43488;46.934;8.276;2023-04-25T10:11:20;96146.88;;;9.59;86.42
57232;BME280;43488;46.934;8.276;2023-04-25T10:13:50;96152.13;;;9.59;84.93
57232;BME280;43488;46.934;8.276;2023-04-25T10:16:19;96165.44;;;9.71;85.73
57232;BME280;43488;46.934;8.276;2023-04-25T10:18:46;96159.56;;;9.68;84.82
57232;BME280;43488;46.934;8.276;2023-04-25T10:21:16;96161.84;;;9.58;87.16
57232;BME280;43488;46.934;8.276;2023-04-25T10:23:44;96165.50;;;9.57;86.65
57232;BME280;43488;46.934;8.276;2023-04-25T10:26:12;96175.78;;;9.59;85.29
57232;BME280;43488;46.934;8.276;2023-04-25T10:29:08;96187.78;;;9.48;85.67
57232;BME280;43488;46.934;8.276;2023-04-25T10:31:46;96192.00;;;9.49;87.86
57232;BME280;43488;46.934;8.276;2023-04-25T10:34:16;96202.56;;;9.43;86.37
57232;BME280;43488;46.934;8.276;2023-04-25T10:36:51;96211.84;;;9.38;86.22
57232;BME280;43488;46.934;8.276;2023-04-25T10:39:24;96223.59;;;9.36;89.38
57232;BME280;43488;46.934;8.276;2023-04-25T10:41:58;96238.97;;;9.12;87.23
57232;BME280;43488;46.934;8.276;2023-04-25T10:44:30;96239.00;;;9.06;88.94
57232;BME280;43488;46.934;8.276;2023-04-25T10:47:00;96239.81;;;9.06;86.77
57232;BME280;43488;46.934;8.276;2023-04-25T10:49:41;96248.91;;;8.84;92.07
57232;BME280;43488;46.934;8.276;2023-04-25T10:54:58;96258.59;;;8.64;95.39
57232;BME280;43488;46.934;8.276;2023-04-25T10:57:42;96262.41;;;8.48;91.83
57232;BME280;43488;46.934;8.276;2023-04-25T11:00:14;96267.22;;;8.38;91.11
57232;BME280;43488;46.934;8.276;2023-04-25T11:02:47;96273.44;;;8.30;89.28
57232;BME280;43488;46.934;8.276;2023-04-25T11:05:35;96274.00;;;8.12;88.68
57232;BME280;43488;46.934;8.276;2023-04-25T11:08:11;96269.16;;;8.16;90.01
57232;BME280;43488;46.934;8.276;2023-04-25T11:10:41;96285.28;;;8.13;89.52
57232;BME280;43488;46.934;8.276;2023-04-25T11:13:09;96288.91;;;8.12;91.38
57232;BME280;43488;46.934;8.276;2023-04-25T11:15:40;96292.53;;;8.11;92.42
57232;BME280;43488;46.934;8.276;2023-04-25T11:18:07;96294.16;;;8.12;92.57
57232;BME280;43488;46.934;8.276;2023-04-25T11:20:35;96292.53;;;8.11;93.67
57232;BME280;43488;46.934;8.276;2023-04-25T11:23:04;96295.41;;;8.22;94.30
57232;BME280;43488;46.934;8.276;2023-04-25T11:25:32;96291.78;;;8.30;94.39
57232;BME280;43488;46.934;8.276;2023-04-25T11:27:59;96298.13;;;8.42;94.72
57232;BME280;43488;46.934;8.276;2023-04-25T11:30:28;96294.69;;;8.42;93.95
57232;BME280;43488;46.934;8.276;2023-04-25T11:32:57;96291.09;;;8.63;91.77
57232;BME280;43488;46.934;8.276;2023-04-25T11:35:25;96290.50;;;8.87;88.96
57232;BME280;43488;46.934;8.276;2023-04-25T11:37:52;96293.31;;;8.92;90.37
57232;BME280;43488;46.934;8.276;2023-04-25T11:40:20;96293.31;;;9.19;88.68
57232;BME280;43488;46.934;8.276;2023-04-25T11:42:47;96290.66;;;9.45;87.25
57232;BME280;43488;46.934;8.276;2023-04-25T11:45:15;96276.81;;;9.83;90.37
57232;BME280;43488;46.934;8.276;2023-04-25T11:47:42;96279.94;;;10.11;87.47
57232;BME280;43488;46.934;8.276;2023-04-25T11:50:10;96278.66;;;10.34;86.43
57232;BME280;43488;46.934;8.276;2023-04-25T11:52:42;96277.72;;;10.53;83.85
57232;BME280;43488;46.934;8.276;2023-04-25T11:55:19;96275.91;;;10.78;82.48
57232;BME280;43488;46.934;8.276;2023-04-25T11:57:50;96284.66;;;10.79;78.97
57232;BME280;43488;46.934;8.276;2023-04-25T12:00:22;96283.28;;;10.95;79.84
57232;BME280;43488;46.934;8.276;2023-04-25T12:02:55;96272.44;;;11.09;80.51
57232;BME280;43488;46.934;8.276;2023-04-25T12:05:30;96274.31;;;11.02;80.93
57232;BME280;43488;46.934;8.276;2023-04-25T12:08:13;96268.38;;;10.89;77.64
57232;BME280;43488;46.934;8.276;2023-04-25T12:10:43;96276.47;;;11.12;78.49
57232;BME280;43488;46.934;8.276;2023-04-25T12:13:25;96271.59;;;11.16;78.82
57232;BME280;43488;46.934;8.276;2023-04-25T12:15:55;96266.47;;;11.21;77.78
57232;BME280;43488;46.934;8.276;2023-04-25T12:18:24;96265.50;;;11.33;75.57
57232;BME280;43488;46.934;8.276;2023-04-25T12:20:55;96262.09;;;11.69;72.47
57232;BME280;43488;46.934;8.276;2023-04-25T12:23:27;96255.50;;;11.60;71.65
57232;BME280;43488;46.934;8.276;2023-04-25T12:25:55;96256.19;;;11.56;68.38
57232;BME280;43488;46.934;8.276;2023-04-25T12:28:24;96255.16;;;11.93;70.82
57232;BME280;43488;46.934;8.276;2023-04-25T12:31:05;96245.91;;;12.21;67.23
57232;BME280;43488;46.934;8.276;2023-04-25T12:33:37;96252.56;;;12.53;64.05
57232;BME280;43488;46.934;8.276;2023-04-25T12:36:06;96251.59;;;12.90;61.30
57232;BME280;43488;46.934;8.276;2023-04-25T12:38:41;96255.94;;;12.84;58.86
57232;BME280;43488;46.934;8.276;2023-04-25T12:41:09;96252.38;;;12.78;62.20
57232;BME280;43488;46.934;8.276;2023-04-25T12:43:37;96258.91;;;12.64;61.32
57232;BME280;43488;46.934;8.276;2023-04-25T12:46:04;96254.66;;;12.63;62.93
57232;BME280;43488;46.934;8.276;2023-04-25T12:48:32;96247.84;;;12.56;63.56
57232;BME280;43488;46.934;8.276;2023-04-25T12:50:59;96249.63;;;12.43;62.77
57232;BME280;43488;46.934;8.276;2023-04-25T12:53:27;96251.31;;;12.26;61.76
57232;BME280;43488;46.934;8.276;2023-04-25T12:55:54;96251.31;;;12.26;62.47
57232;BME280;43488;46.934;8.276;2023-04-25T12:58:22;96248.75;;;12.19;60.43
57232;BME280;43488;46.934;8.276;2023-04-25T13:00:50;96252.72;;;12.10;59.59
57232;BME280;43488;46.934;8.276;2023-04-25T13:03:17;96246.22;;;11.94;62.34
57232;BME280;43488;46.934;8.276;2023-04-25T13:05:46;96252.97;;;11.90;62.31
57232;BME280;43488;46.934;8.276;2023-04-25T13:08:13;96246.53;;;11.86;62.16
57232;BME280;43488;46.934;8.276;2023-04-25T13:10:41;96254.59;;;11.91;63.26
57232;BME280;43488;46.934;8.276;2023-04-25T13:13:08;96253.84;;;11.84;64.85
57232;BME280;43488;46.934;8.276;2023-04-25T13:15:36;96251.38;;;11.89;65.51
57232;BME280;43488;46.934;8.276;2023-04-25T13:18:04;96249.72;;;12.07;64.09